createdAt,value
2019-05-13T00:00:26.210Z,10.78
2019-05-13T00:02:56.947Z,10.81
2019-05-13T00:05:28.766Z,10.79
2019-05-13T00:07:59.104Z,10.78
2019-05-13T00:10:30.130Z,10.74
2019-05-13T00:13:00.471Z,10.73
2019-05-13T00:15:33.741Z,10.68
2019-05-13T00:18:04.295Z,10.65
2019-05-13T00:20:38.323Z,10.62
2019-05-13T00:23:09.713Z,10.54
2019-05-13T00:25:40.336Z,10.46
2019-05-13T00:28:10.649Z,10.49
2019-05-13T00:30:41.109Z,10.46
2019-05-13T00:33:13.788Z,10.50
2019-05-13T00:35:45.536Z,10.35
2019-05-13T00:38:15.940Z,10.46
2019-05-13T00:40:47.549Z,10.38
2019-05-13T00:43:17.782Z,10.36
2019-05-13T00:45:48.559Z,10.31
2019-05-13T00:48:18.872Z,10.23
2019-05-13T00:50:50.182Z,10.29
2019-05-13T00:53:20.493Z,10.30
2019-05-13T00:55:50.858Z,10.25
2019-05-13T00:58:21.162Z,10.20
2019-05-13T01:00:51.512Z,10.22
2019-05-13T01:03:24.555Z,10.09
2019-05-13T01:05:54.894Z,10.12
2019-05-13T01:08:26.093Z,10.11
2019-05-13T01:10:56.405Z,10.01
2019-05-13T01:13:26.814Z,10.02
2019-05-13T01:15:58.255Z,9.98
2019-05-13T01:18:29.711Z,9.92
2019-05-13T01:21:04.201Z,9.90
2019-05-13T01:23:34.380Z,9.91
2019-05-13T01:26:05.085Z,9.82
2019-05-13T01:28:37.311Z,9.86
2019-05-13T01:31:09.179Z,9.82
2019-05-13T01:33:39.485Z,9.91
2019-05-13T01:36:09.830Z,9.83
2019-05-13T01:38:40.747Z,9.87
2019-05-13T01:41:13.663Z,9.82
2019-05-13T01:43:46.664Z,9.82
2019-05-13T01:46:17.971Z,9.75
2019-05-13T01:48:48.212Z,9.73
2019-05-13T01:51:19.316Z,9.74
2019-05-13T01:53:50.583Z,9.64
2019-05-13T01:56:23.561Z,9.62
2019-05-13T01:58:54.207Z,9.59
2019-05-13T02:01:24.970Z,9.44
2019-05-13T02:03:56.372Z,9.45
2019-05-13T02:06:27.962Z,9.39
2019-05-13T02:08:58.297Z,9.42
2019-05-13T02:11:28.869Z,9.41
2019-05-13T02:14:00.976Z,9.36
2019-05-13T02:16:33.853Z,9.29
2019-05-13T02:19:04.146Z,9.28
2019-05-13T02:21:36.272Z,9.31
2019-05-13T02:24:06.576Z,9.27
2019-05-13T02:26:39.242Z,9.24
2019-05-13T02:29:09.568Z,9.24
2019-05-13T02:31:46.589Z,9.08
2019-05-13T02:34:13.690Z,9.05
2019-05-13T02:36:44.950Z,9.10
2019-05-13T02:39:15.257Z,9.08
2019-05-13T02:41:45.611Z,9.07
2019-05-13T02:44:15.928Z,8.99
2019-05-13T02:46:46.741Z,9.02
2019-05-13T02:49:17.056Z,9.03
2019-05-13T02:51:47.807Z,9.01
2019-05-13T02:54:18.118Z,9.03
2019-05-13T02:56:48.879Z,8.99
2019-05-13T02:59:19.287Z,8.97
2019-05-13T03:01:53.481Z,8.89
2019-05-13T03:04:23.534Z,8.93
2019-05-13T03:06:56.140Z,8.76
2019-05-13T03:09:26.686Z,8.88
2019-05-13T03:11:58.189Z,8.90
2019-05-13T03:14:32.406Z,8.83
2019-05-13T03:17:04.199Z,8.87
2019-05-13T03:19:35.261Z,8.90
2019-05-13T03:22:06.822Z,8.88
2019-05-13T03:24:37.929Z,8.82
2019-05-13T03:27:09.110Z,8.77
2019-05-13T03:29:39.428Z,8.71
2019-05-13T03:32:15.805Z,8.71
2019-05-13T03:34:45.317Z,8.75
2019-05-13T03:37:16.861Z,8.68
2019-05-13T03:39:52.177Z,8.71
2019-05-13T03:42:22.925Z,8.63
2019-05-13T03:44:55.337Z,8.60
2019-05-13T03:47:27.363Z,8.60
2019-05-13T03:50:03.353Z,8.57
2019-05-13T03:52:33.642Z,8.54
2019-05-13T03:55:04.827Z,8.51
2019-05-13T03:57:35.310Z,8.54
2019-05-13T04:00:07.318Z,8.49
2019-05-13T04:02:37.953Z,8.51
2019-05-13T04:05:13.014Z,8.54
2019-05-13T04:07:43.405Z,8.56
2019-05-13T04:10:14.399Z,8.55
2019-05-13T04:12:44.923Z,8.50
2019-05-13T04:15:15.962Z,8.46
2019-05-13T04:17:47.926Z,8.44
2019-05-13T04:20:18.217Z,8.42
2019-05-13T04:22:52.954Z,8.42
2019-05-13T04:25:23.394Z,8.45
2019-05-13T04:27:55.584Z,8.40
2019-05-13T04:30:25.899Z,8.43
2019-05-13T04:32:56.364Z,8.40
2019-05-13T04:35:26.727Z,8.36
2019-05-13T04:37:57.871Z,8.38
2019-05-13T04:40:28.414Z,8.41
2019-05-13T04:42:58.748Z,8.33
2019-05-13T04:45:32.608Z,8.37
2019-05-13T04:48:03.351Z,8.41
2019-05-13T04:50:34.673Z,8.40
2019-05-13T04:53:05.037Z,8.43
2019-05-13T04:55:35.797Z,8.75
2019-05-13T04:58:06.141Z,9.19
2019-05-13T05:00:49.941Z,9.58
2019-05-13T05:03:33.421Z,9.81
2019-05-13T05:06:05.420Z,10.18
2019-05-13T05:08:48.035Z,10.41
2019-05-13T05:11:28.055Z,10.81
2019-05-13T05:14:23.610Z,10.68
2019-05-13T05:17:03.436Z,10.93
2019-05-13T05:19:56.556Z,11.19
2019-05-13T05:22:36.999Z,11.42
2019-05-13T05:25:31.894Z,11.56
2019-05-13T05:28:21.785Z,11.92
2019-05-13T05:31:13.012Z,12.15
2019-05-13T05:34:06.421Z,11.74
2019-05-13T05:37:01.658Z,11.99
2019-05-13T05:39:32.653Z,11.77
2019-05-13T05:42:05.048Z,11.82
2019-05-13T05:44:38.415Z,12.48
2019-05-13T05:47:11.274Z,12.02
2019-05-13T05:49:45.411Z,12.02
2019-05-13T05:52:18.500Z,12.16
2019-05-13T05:54:54.553Z,12.22
2019-05-13T05:57:27.653Z,12.57
2019-05-13T05:59:59.002Z,12.43
2019-05-13T06:02:32.511Z,12.90
2019-05-13T06:05:05.482Z,12.53
2019-05-13T06:07:36.723Z,12.59
2019-05-13T06:10:10.841Z,13.04
2019-05-13T06:12:43.138Z,13.43
2019-05-13T06:15:14.653Z,14.36
2019-05-13T06:17:44.966Z,14.00
2019-05-13T06:20:15.523Z,14.55
2019-05-13T06:22:47.008Z,15.29
2019-05-13T06:25:23.303Z,15.72
2019-05-13T06:27:51.993Z,15.10
2019-05-13T06:30:22.432Z,15.64
2019-05-13T06:32:53.255Z,15.24
2019-05-13T06:35:23.543Z,14.43
2019-05-13T06:37:54.513Z,14.15
2019-05-13T06:40:25.198Z,15.09
2019-05-13T06:42:56.574Z,15.20
2019-05-13T06:45:27.003Z,14.12
2019-05-13T06:47:57.507Z,14.47
2019-05-13T06:50:32.276Z,14.79
2019-05-13T06:53:02.479Z,15.37
2019-05-13T06:55:33.537Z,16.37
2019-05-13T06:58:04.573Z,16.67
2019-05-13T07:00:35.586Z,17.18
2019-05-13T07:03:06.445Z,16.34
2019-05-13T07:05:37.851Z,16.26
2019-05-13T07:08:08.959Z,16.59
2019-05-13T07:10:41.406Z,16.37
2019-05-13T07:13:11.939Z,16.00
2019-05-13T07:15:42.238Z,16.05
2019-05-13T07:18:15.952Z,16.12
2019-05-13T07:20:45.061Z,16.38
2019-05-13T07:23:17.561Z,15.49
2019-05-13T07:25:47.891Z,15.22
2019-05-13T07:28:21.903Z,15.91
2019-05-13T07:30:51.838Z,16.61
2019-05-13T07:33:22.164Z,16.13
2019-05-13T07:35:58.132Z,16.38
2019-05-13T07:38:27.844Z,16.24
2019-05-13T07:41:06.305Z,16.41
2019-05-13T07:43:36.617Z,16.46
2019-05-13T07:46:07.129Z,15.73
2019-05-13T07:48:41.438Z,15.93
2019-05-13T07:51:12.115Z,16.45
2019-05-13T07:53:42.743Z,16.80
2019-05-13T07:56:13.516Z,16.08
2019-05-13T07:58:46.278Z,16.36
2019-05-13T08:01:16.597Z,17.20
2019-05-13T08:03:47.698Z,17.00
2019-05-13T08:06:17.936Z,16.95
2019-05-13T08:08:52.110Z,16.71
2019-05-13T08:11:22.358Z,17.44
2019-05-13T08:13:54.572Z,17.29
2019-05-13T08:16:24.869Z,17.00
2019-05-13T08:18:55.229Z,17.28
2019-05-13T08:21:25.580Z,16.84
2019-05-13T08:23:57.746Z,16.72
2019-05-13T08:26:27.997Z,16.70
2019-05-13T08:29:04.802Z,17.65
2019-05-13T08:31:32.370Z,16.59
2019-05-13T08:34:05.332Z,16.80
2019-05-13T08:36:39.512Z,17.15
2019-05-13T08:39:12.757Z,16.93
2019-05-13T08:41:43.520Z,16.69
2019-05-13T08:44:14.437Z,17.20
2019-05-13T08:46:44.776Z,17.73
2019-05-13T08:49:15.815Z,18.40
2019-05-13T08:51:46.233Z,17.63
2019-05-13T08:54:16.991Z,17.04
2019-05-13T08:56:47.290Z,17.19
2019-05-13T08:59:22.057Z,17.08
2019-05-13T09:01:52.110Z,17.41
2019-05-13T09:04:22.758Z,17.58
2019-05-13T09:06:54.226Z,17.45
2019-05-13T09:09:25.557Z,17.80
2019-05-13T09:11:55.914Z,17.36
2019-05-13T09:14:28.384Z,17.20
2019-05-13T09:17:01.803Z,17.67
2019-05-13T09:19:32.957Z,18.26
2019-05-13T09:22:03.631Z,17.78
2019-05-13T09:27:07.137Z,17.81
2019-05-13T09:29:39.337Z,17.08
2019-05-13T09:32:12.034Z,17.52
2019-05-13T09:34:44.146Z,17.59
2019-05-13T09:37:14.568Z,17.49
2019-05-13T09:39:46.167Z,17.49
2019-05-13T09:42:17.085Z,17.71
2019-05-13T09:44:48.314Z,17.41
2019-05-13T09:47:18.728Z,16.97
2019-05-13T09:49:49.415Z,16.76
2019-05-13T09:52:22.585Z,17.02
2019-05-13T09:54:52.771Z,17.58
2019-05-13T09:57:23.239Z,18.07
2019-05-13T09:59:55.118Z,17.91
2019-05-13T10:02:25.811Z,17.70
2019-05-13T10:04:56.519Z,17.11
2019-05-13T10:07:27.250Z,17.05
2019-05-13T10:10:01.220Z,16.65
2019-05-13T10:12:32.010Z,16.77
2019-05-13T10:15:04.133Z,16.91
2019-05-13T10:17:34.578Z,16.79
2019-05-13T10:20:12.101Z,16.85
2019-05-13T10:22:42.295Z,17.16
2019-05-13T10:25:18.079Z,16.97
2019-05-13T10:27:49.061Z,16.89
2019-05-13T10:30:21.860Z,17.34
2019-05-13T10:32:52.789Z,17.45
2019-05-13T10:35:23.322Z,17.27
2019-05-13T10:37:53.738Z,17.17
2019-05-13T10:40:25.280Z,17.49
2019-05-13T10:42:55.611Z,17.54
2019-05-13T10:45:26.782Z,17.35
2019-05-13T10:47:57.503Z,16.98
2019-05-13T10:50:28.230Z,17.10
2019-05-13T10:52:59.240Z,16.86
2019-05-13T10:55:32.428Z,17.22
2019-05-13T10:58:02.595Z,16.73
2019-05-13T11:00:55.274Z,16.87
2019-05-13T11:03:25.673Z,17.23
2019-05-13T11:05:56.771Z,17.33
2019-05-13T11:08:27.834Z,17.49
2019-05-13T11:11:01.930Z,17.44
2019-05-13T11:13:49.515Z,17.66
2019-05-13T11:16:04.984Z,18.05
2019-05-13T11:18:35.440Z,18.34
2019-05-13T11:21:06.719Z,18.20
2019-05-13T11:23:38.043Z,17.69
2019-05-13T11:26:08.874Z,17.47
2019-05-13T11:28:39.421Z,17.65
2019-05-13T11:31:12.613Z,17.74
2019-05-13T11:33:42.956Z,17.97
2019-05-13T11:36:18.903Z,17.58
2019-05-13T11:38:46.544Z,17.32
2019-05-13T11:41:17.506Z,17.72
2019-05-13T11:44:08.040Z,17.87
2019-05-13T11:46:22.611Z,18.31
2019-05-13T11:48:52.649Z,18.11
2019-05-13T11:51:24.334Z,18.31
2019-05-13T11:53:55.337Z,18.54
2019-05-13T11:56:26.800Z,18.38
2019-05-13T11:58:57.124Z,18.45
2019-05-13T12:01:33.328Z,18.05
2019-05-13T12:04:02.928Z,18.13
2019-05-13T12:06:34.055Z,18.63
2019-05-13T12:09:12.672Z,18.57
2019-05-13T12:11:42.554Z,18.30
2019-05-13T12:14:37.506Z,18.46
2019-05-13T12:16:45.759Z,18.12
2019-05-13T12:19:16.864Z,17.70
2019-05-13T12:21:48.459Z,17.95
2019-05-13T12:24:22.121Z,18.00
2019-05-13T12:26:53.465Z,17.58
2019-05-13T12:29:24.769Z,17.29
2019-05-13T12:31:56.203Z,17.36
2019-05-13T12:34:26.512Z,17.52
2019-05-13T12:36:57.524Z,17.73
2019-05-13T12:39:27.753Z,17.73
2019-05-13T12:42:03.097Z,17.89
2019-05-13T12:44:31.708Z,17.71
2019-05-13T12:47:04.291Z,17.79
2019-05-13T12:49:36.543Z,17.54
2019-05-13T12:52:08.687Z,17.78
2019-05-13T12:54:43.791Z,18.22
2019-05-13T12:57:15.733Z,18.13
2019-05-13T12:59:44.538Z,18.38
2019-05-13T13:02:16.151Z,18.16
2019-05-13T13:05:08.856Z,18.20
2019-05-13T13:07:21.594Z,18.20
2019-05-13T13:09:53.649Z,18.45
2019-05-13T13:12:34.256Z,18.49
2019-05-13T13:14:57.017Z,17.85
2019-05-13T13:17:27.553Z,17.82
2019-05-13T13:20:05.970Z,18.12
2019-05-13T13:22:32.061Z,18.43
2019-05-13T13:25:04.967Z,18.35
2019-05-13T13:28:04.062Z,17.95
2019-05-13T13:30:10.172Z,18.02
2019-05-13T13:32:45.102Z,17.90
2019-05-13T13:35:15.098Z,17.83
2019-05-13T13:37:46.357Z,18.09
2019-05-13T13:40:24.438Z,18.23
2019-05-13T13:42:52.876Z,18.08
2019-05-13T13:45:23.013Z,18.27
2019-05-13T13:48:02.302Z,18.15
2019-05-13T13:50:25.419Z,18.17
2019-05-13T13:52:57.729Z,18.03
2019-05-13T13:55:28.128Z,17.88
2019-05-13T13:57:58.489Z,17.83
2019-05-13T14:00:40.968Z,17.81
2019-05-13T14:03:06.443Z,17.95
2019-05-13T14:05:36.460Z,17.99
2019-05-13T14:06:25.161Z,17.94
2019-05-13T14:08:07.644Z,18.13
2019-05-13T14:10:37.963Z,18.04
2019-05-13T14:13:12.337Z,17.73
2019-05-13T14:15:42.515Z,17.62
2019-05-13T14:18:13.382Z,17.52
2019-05-13T14:20:43.705Z,17.48
2019-05-13T14:23:15.111Z,17.52
2019-05-13T14:25:45.444Z,17.63
2019-05-13T14:28:17.926Z,17.63
2019-05-13T14:30:51.270Z,17.78
2019-05-13T14:33:22.198Z,17.64
2019-05-13T14:35:53.146Z,17.80
2019-05-13T14:38:25.439Z,18.00
2019-05-13T14:40:55.926Z,17.95
2019-05-13T14:43:27.664Z,18.00
2019-05-13T14:45:57.986Z,17.90
2019-05-13T14:48:28.595Z,17.85
2019-05-13T14:50:59.760Z,18.01
2019-05-13T14:53:33.782Z,18.22
2019-05-13T14:56:04.429Z,18.22
2019-05-13T14:58:36.409Z,18.08
2019-05-13T15:01:15.711Z,17.95
2019-05-13T15:03:41.566Z,18.02
2019-05-13T15:06:12.131Z,18.35
2019-05-13T15:08:44.915Z,18.10
2019-05-13T15:11:15.317Z,18.13
2019-05-13T15:13:46.712Z,18.26
2019-05-13T15:16:17.652Z,18.03
2019-05-13T15:18:49.139Z,18.06
2019-05-13T15:21:24.302Z,18.12
2019-05-13T15:23:55.589Z,18.16
2019-05-13T15:26:25.994Z,18.03
2019-05-13T15:28:56.946Z,17.89
2019-05-13T15:31:28.343Z,17.95
2019-05-13T15:34:02.276Z,18.08
2019-05-13T15:36:33.127Z,18.12
2019-05-13T15:39:06.545Z,18.20
2019-05-13T15:41:37.469Z,18.39
2019-05-13T15:44:11.442Z,18.26
2019-05-13T15:46:43.611Z,18.03
2019-05-13T15:49:15.357Z,18.17
2019-05-13T15:51:45.611Z,18.29
2019-05-13T15:54:16.603Z,18.29
2019-05-13T15:56:49.905Z,18.20
2019-05-13T15:59:21.982Z,18.32
2019-05-13T16:01:53.110Z,18.27
2019-05-13T16:04:28.870Z,18.34
2019-05-13T16:07:01.473Z,18.33
2019-05-13T16:09:31.679Z,18.15
2019-05-13T16:12:03.366Z,18.22
2019-05-13T16:14:33.985Z,18.04
2019-05-13T16:17:06.980Z,17.95
2019-05-13T16:19:38.990Z,17.97
2019-05-13T16:22:11.850Z,18.00
2019-05-13T16:24:43.626Z,17.94
2019-05-13T16:27:15.389Z,17.98
2019-05-13T16:29:48.087Z,18.10
2019-05-13T16:32:22.670Z,18.05
2019-05-13T16:34:54.440Z,17.98
2019-05-13T16:37:25.156Z,17.94
2019-05-13T16:39:57.608Z,18.00
2019-05-13T16:42:31.189Z,17.80
2019-05-13T16:45:03.440Z,17.81
2019-05-13T16:47:35.510Z,17.92
2019-05-13T16:50:11.487Z,17.87
2019-05-13T16:52:43.371Z,17.85
2019-05-13T16:55:15.461Z,17.79
2019-05-13T16:57:46.574Z,17.88
2019-05-13T17:00:19.056Z,17.96
2019-05-13T17:02:51.678Z,17.86
2019-05-13T17:05:23.157Z,17.86
2019-05-13T17:07:54.220Z,17.95
2019-05-13T17:10:27.519Z,17.85
2019-05-13T17:13:02.668Z,18.00
2019-05-13T17:15:32.557Z,18.00
2019-05-13T17:18:11.602Z,17.92
2019-05-13T17:20:36.296Z,17.90
2019-05-13T17:23:06.962Z,17.76
2019-05-13T17:25:37.441Z,17.61
2019-05-13T17:28:08.104Z,17.71
2019-05-13T17:30:38.442Z,17.76
2019-05-13T17:33:08.881Z,17.86
2019-05-13T17:35:41.890Z,17.90
2019-05-13T17:38:12.540Z,17.74
2019-05-13T17:40:47.754Z,17.63
2019-05-13T17:43:15.294Z,17.53
2019-05-13T17:45:47.055Z,17.55
2019-05-13T17:48:26.773Z,17.53
2019-05-13T17:50:52.185Z,17.56
2019-05-13T17:53:22.435Z,17.54
2019-05-13T17:55:53.661Z,17.53
2019-05-13T17:58:25.317Z,17.53
2019-05-13T18:00:56.283Z,17.63
2019-05-13T18:03:26.604Z,17.51
2019-05-13T18:05:56.938Z,17.40
2019-05-13T18:08:27.770Z,17.38
2019-05-13T18:10:58.603Z,17.48
2019-05-13T18:13:29.027Z,17.53
2019-05-13T18:16:02.415Z,17.43
2019-05-13T18:18:43.309Z,17.32
2019-05-13T18:21:05.422Z,17.36
2019-05-13T18:23:35.743Z,17.22
2019-05-13T18:26:06.678Z,17.21
2019-05-13T18:28:37.026Z,17.13
2019-05-13T18:31:12.076Z,17.04
2019-05-13T18:33:42.390Z,17.06
2019-05-13T18:36:14.446Z,16.99
2019-05-13T18:38:44.833Z,17.01
2019-05-13T18:41:16.187Z,16.98
2019-05-13T18:43:46.524Z,16.87
2019-05-13T18:46:17.320Z,16.87
2019-05-13T18:48:58.569Z,16.88
2019-05-13T18:51:21.200Z,16.78
2019-05-13T18:53:51.998Z,16.73
2019-05-13T18:56:22.341Z,16.74
2019-05-13T18:58:52.751Z,16.72
2019-05-13T19:01:23.125Z,16.66
2019-05-13T19:03:53.471Z,16.65
2019-05-13T19:06:24.359Z,16.62
2019-05-13T19:08:54.841Z,16.57
2019-05-13T19:11:26.379Z,16.54
2019-05-13T19:13:56.764Z,16.53
2019-05-13T19:16:27.176Z,16.52
2019-05-13T19:19:11.782Z,16.41
2019-05-13T19:21:31.264Z,16.35
2019-05-13T19:24:02.129Z,16.34
2019-05-13T19:26:33.130Z,16.28
2019-05-13T19:29:03.664Z,16.20
2019-05-13T19:31:34.348Z,16.14
2019-05-13T19:34:04.651Z,16.08
2019-05-13T19:36:36.090Z,16.10
2019-05-13T19:39:07.141Z,16.04
2019-05-13T19:41:42.066Z,15.98
2019-05-13T19:44:12.285Z,15.91
2019-05-13T19:46:43.293Z,15.89
2019-05-13T19:49:28.805Z,15.87
2019-05-13T19:51:45.949Z,15.79
2019-05-13T19:54:16.269Z,15.72
2019-05-13T19:56:46.659Z,15.70
2019-05-13T19:59:22.407Z,15.68
2019-05-13T20:01:52.775Z,15.61
2019-05-13T20:04:23.104Z,15.57
2019-05-13T20:06:54.509Z,15.51
2019-05-13T20:09:25.239Z,15.44
2019-05-13T20:11:57.196Z,15.45
2019-05-13T20:14:28.075Z,15.32
2019-05-13T20:16:58.864Z,15.35
2019-05-13T20:19:42.723Z,15.32
2019-05-13T20:22:02.557Z,15.35
2019-05-13T20:24:33.181Z,15.24
2019-05-13T20:27:04.669Z,15.20
2019-05-13T20:29:34.986Z,15.20
2019-05-13T20:32:05.694Z,15.11
2019-05-13T20:34:36.479Z,15.04
2019-05-13T20:37:08.230Z,14.95
2019-05-13T20:39:38.665Z,14.92
2019-05-13T20:42:12.282Z,15.01
2019-05-13T20:44:42.347Z,14.89
2019-05-13T20:47:12.795Z,14.82
2019-05-13T20:49:43.264Z,14.80
2019-05-13T20:52:15.605Z,14.71
2019-05-13T20:54:46.511Z,14.71
2019-05-13T20:57:22.162Z,14.67
2019-05-13T20:59:52.579Z,14.65
2019-05-13T21:02:24.196Z,14.59
2019-05-13T21:04:54.453Z,14.55
2019-05-13T21:07:28.466Z,14.52
2019-05-13T21:10:01.399Z,14.47
2019-05-13T21:12:33.234Z,14.47
2019-05-13T21:15:04.081Z,14.40
2019-05-13T21:17:35.290Z,14.32
2019-05-13T21:20:21.444Z,14.35
2019-05-13T21:22:42.484Z,14.28
2019-05-13T21:25:13.693Z,14.28
2019-05-13T21:27:44.713Z,14.25
2019-05-13T21:30:15.618Z,14.16
2019-05-13T21:32:47.734Z,14.14
2019-05-13T21:35:18.265Z,14.12
2019-05-13T21:37:51.055Z,14.12
2019-05-13T21:40:21.778Z,14.06
2019-05-13T21:42:52.788Z,14.06
2019-05-13T21:45:25.175Z,13.98
2019-05-13T21:47:55.555Z,13.92
2019-05-13T21:50:34.292Z,13.91
2019-05-13T21:52:58.232Z,13.82
2019-05-13T21:55:28.933Z,13.80
2019-05-13T21:57:59.592Z,13.75
2019-05-13T22:00:32.226Z,13.64
2019-05-13T22:03:03.525Z,13.70
2019-05-13T22:05:35.026Z,13.64
2019-05-13T22:08:05.962Z,13.67
2019-05-13T22:10:36.321Z,13.55
2019-05-13T22:13:07.673Z,13.42
2019-05-13T22:15:38.112Z,13.42
2019-05-13T22:18:08.637Z,13.22
2019-05-13T22:20:49.493Z,13.43
2019-05-13T22:23:12.008Z,13.29
2019-05-13T22:25:43.797Z,13.11
2019-05-13T22:28:14.420Z,12.81
2019-05-13T22:30:44.749Z,12.84
2019-05-13T22:33:16.873Z,12.70
2019-05-13T22:35:47.830Z,12.73
2019-05-13T22:38:21.424Z,12.73
2019-05-13T22:40:52.169Z,12.63
2019-05-13T22:43:23.527Z,12.55
2019-05-13T22:45:54.170Z,12.52
2019-05-13T22:48:24.497Z,12.41
2019-05-13T22:50:54.741Z,12.34
2019-05-13T22:53:25.502Z,12.29
2019-05-13T22:56:00.587Z,12.27
2019-05-13T22:58:32.057Z,12.06
2019-05-13T23:01:03.055Z,11.94
2019-05-13T23:03:34.401Z,11.81
2019-05-13T23:06:04.643Z,11.78
2019-05-13T23:08:35.007Z,11.69
2019-05-13T23:11:05.703Z,11.77
2019-05-13T23:13:36.223Z,11.75
2019-05-13T23:16:06.636Z,11.55
2019-05-13T23:18:39.434Z,11.66
2019-05-13T23:21:11.448Z,11.75
2019-05-13T23:23:42.476Z,11.63
2019-05-13T23:26:14.652Z,11.58
2019-05-13T23:28:45.108Z,11.75
2019-05-13T23:31:15.421Z,11.78
2019-05-13T23:33:47.513Z,11.87
2019-05-13T23:36:17.980Z,11.81
2019-05-13T23:38:51.545Z,11.68
2019-05-13T23:41:21.822Z,11.59
2019-05-13T23:43:53.206Z,11.71
2019-05-13T23:46:23.885Z,11.41
2019-05-13T23:48:55.018Z,11.21
2019-05-13T23:51:26.263Z,11.17
2019-05-13T23:53:57.438Z,11.06
2019-05-13T23:56:28.585Z,11.12
2019-05-13T23:58:59.734Z,11.29
